Time;durP1;ratioP1;P1;durP2;ratioP2;P2;SDS_P1;SDS_P2;PMS_P1;PMS_P2;Temp;Humidity;BMP_temperature;BMP_pressure;BME280_temperature;BME280_humidity;BME280_pressure;Samples;Min_cycle;Max_cycle;Signal;HPM_P1;HPM_P2
2023/08/01 00:01:35;;;;;;;0.30;0.30;;;;;;;;;;5024661;28;20047;-71
2023/08/01 00:04:01;;;;;;;0.50;0.50;;;;;;;;;;5020980;28;20128;-70
2023/08/01 00:06:27;;;;;;;1.15;0.65;;;;;;;;;;5038016;28;20484;-71
2023/08/01 00:08:54;;;;;;;0.73;0.73;;;;;;;;;;5025194;28;20048;-71
2023/08/01 00:11:20;;;;;;;0.30;0.30;;;;;;;;;;5036331;28;20583;-71
2023/08/01 00:13:46;;;;;;;0.40;0.40;;;;;;;;;;5027866;28;20049;-71
2023/08/01 00:16:12;;;;;;;0.40;0.40;;;;;;;;;;5043535;28;20033;-71
2023/08/01 00:18:38;;;;;;;0.45;0.45;;;;;;;;;;5002890;28;20038;-71
2023/08/01 00:21:10;;;;;;;0.68;0.68;;;;;;;;;;5013717;28;20052;-71
2023/08/01 00:23:36;;;;;;;0.40;0.40;;;;;;;;;;5032918;28;20057;-71
2023/08/01 00:26:03;;;;;;;0.65;0.65;;;;;;;;;;5044515;28;20452;-70
2023/08/01 00:28:30;;;;;;;0.60;0.60;;;;;;;;;;5034211;28;20071;-71
2023/08/01 00:31:06;;;;;;;0.60;0.60;;;;;;;;;;5023774;28;20092;-72
2023/08/01 00:33:33;;;;;;;0.30;0.30;;;;;;;;;;5034179;28;20148;-71
2023/08/01 00:35:59;;;;;;;0.88;0.88;;;;;;;;;;5037171;28;20078;-71
2023/08/01 00:38:25;;;;;;;0.63;0.63;;;;;;;;;;5013408;28;20106;-71
2023/08/01 00:40:51;;;;;;;1.00;1.00;;;;;;;;;;5020085;28;20076;-71
2023/08/01 00:43:17;;;;;;;0.40;0.40;;;;;;;;;;5041347;28;20408;-71
2023/08/01 00:45:43;;;;;;;0.30;0.30;;;;;;;;;;5017091;28;20038;-71
2023/08/01 00:48:09;;;;;;;0.50;0.50;;;;;;;;;;5014265;28;20083;-71
2023/08/01 00:50:36;;;;;;;0.45;0.45;;;;;;;;;;5035320;28;20408;-71
2023/08/01 00:53:02;;;;;;;0.40;0.40;;;;;;;;;;5014477;28;20044;-71
2023/08/01 00:55:29;;;;;;;0.40;0.40;;;;;;;;;;5033266;28;20040;-71
2023/08/01 00:57:55;;;;;;;0.40;0.40;;;;;;;;;;5029395;28;20063;-71
2023/08/01 01:00:22;;;;;;;0.40;0.40;;;;;;;;;;5030539;28;20123;-71
2023/08/01 01:02:48;;;;;;;0.80;0.80;;;;;;;;;;5024349;28;20049;-71
2023/08/01 01:05:15;;;;;;;0.47;0.47;;;;;;;;;;5035739;28;20113;-71
2023/08/01 01:07:41;;;;;;;0.23;0.23;;;;;;;;;;5040527;28;20151;-71
2023/08/01 01:10:08;;;;;;;1.35;1.25;;;;;;;;;;5023255;28;20037;-71
2023/08/01 01:12:34;;;;;;;0.43;0.43;;;;;;;;;;5025591;28;20041;-70
2023/08/01 01:15:00;;;;;;;0.60;0.60;;;;;;;;;;5018281;28;20053;-71
2023/08/01 01:17:26;;;;;;;0.50;0.50;;;;;;;;;;5019027;28;20045;-70
2023/08/01 01:19:52;;;;;;;0.50;0.50;;;;;;;;;;5021997;28;20046;-71
2023/08/01 01:22:19;;;;;;;0.60;0.60;;;;;;;;;;5027312;28;20060;-71
2023/08/01 01:24:45;;;;;;;0.63;0.63;;;;;;;;;;5028625;28;20185;-71
2023/08/01 01:27:12;;;;;;;0.50;0.50;;;;;;;;;;5011588;28;20558;-71
2023/08/01 01:29:39;;;;;;;0.40;0.40;;;;;;;;;;5027744;28;20071;-71
2023/08/01 01:32:06;;;;;;;0.40;0.40;;;;;;;;;;5015409;28;20044;-71
2023/08/01 01:34:32;;;;;;;0.52;0.52;;;;;;;;;;5016042;28;20047;-70
2023/08/01 01:36:58;;;;;;;0.40;0.40;;;;;;;;;;5010819;28;20229;-71
2023/08/01 01:39:24;;;;;;;0.55;0.55;;;;;;;;;;5023326;28;20037;-71
2023/08/01 01:41:50;;;;;;;0.40;0.40;;;;;;;;;;5020403;28;20078;-71
2023/08/01 01:44:16;;;;;;;0.30;0.30;;;;;;;;;;5031089;28;20045;-70
2023/08/01 01:46:42;;;;;;;0.52;0.52;;;;;;;;;;5017240;28;20501;-71
2023/08/01 01:49:08;;;;;;;0.40;0.40;;;;;;;;;;5030767;28;20040;-70
2023/08/01 01:51:34;;;;;;;1.50;0.98;;;;;;;;;;5033045;28;20119;-71
2023/08/01 01:54:00;;;;;;;0.40;0.40;;;;;;;;;;5040634;28;20539;-71
2023/08/01 01:56:26;;;;;;;0.40;0.40;;;;;;;;;;5040983;28;20036;-71
2023/08/01 01:58:52;;;;;;;1.00;0.63;;;;;;;;;;5032034;28;20049;-70
2023/08/01 02:01:18;;;;;;;1.02;0.73;;;;;;;;;;5032151;28;20040;-71
2023/08/01 02:03:44;;;;;;;0.60;0.60;;;;;;;;;;5032428;28;20045;-70
2023/08/01 02:06:10;;;;;;;0.60;0.60;;;;;;;;;;5032614;28;20481;-71
2023/08/01 02:08:37;;;;;;;0.40;0.40;;;;;;;;;;5012587;28;20060;-71
2023/08/01 02:11:03;;;;;;;0.40;0.40;;;;;;;;;;5029357;28;20119;-71
2023/08/01 02:13:30;;;;;;;0.45;0.45;;;;;;;;;;5032258;28;20045;-70
2023/08/01 02:15:56;;;;;;;0.40;0.40;;;;;;;;;;5039702;28;20110;-71
2023/08/01 02:18:22;;;;;;;1.05;0.80;;;;;;;;;;5024041;28;20040;-71
2023/08/01 02:20:48;;;;;;;0.50;0.50;;;;;;;;;;5038206;28;20522;-71
2023/08/01 02:23:14;;;;;;;0.40;0.40;;;;;;;;;;5017383;28;20400;-71
2023/08/01 02:25:40;;;;;;;0.40;0.40;;;;;;;;;;5026243;28;20148;-70
2023/08/01 02:28:06;;;;;;;0.40;0.40;;;;;;;;;;5028954;28;20044;-70
2023/08/01 02:30:33;;;;;;;0.50;0.50;;;;;;;;;;5030355;28;20045;-71
2023/08/01 02:32:59;;;;;;;1.13;0.70;;;;;;;;;;5025083;28;20152;-70
2023/08/01 02:35:25;;;;;;;0.40;0.40;;;;;;;;;;5015349;28;20559;-71
2023/08/01 02:37:51;;;;;;;0.55;0.55;;;;;;;;;;5015854;28;20033;-71
2023/08/01 02:40:17;;;;;;;0.40;0.40;;;;;;;;;;5016041;28;20048;-70
2023/08/01 02:42:43;;;;;;;1.45;1.20;;;;;;;;;;5030910;28;20127;-71
2023/08/01 02:45:09;;;;;;;0.50;0.50;;;;;;;;;;5029294;28;20144;-71
2023/08/01 02:47:35;;;;;;;1.25;1.25;;;;;;;;;;5034638;28;20090;-71
2023/08/01 02:50:01;;;;;;;0.40;0.40;;;;;;;;;;5034855;28;20392;-70
2023/08/01 02:52:28;;;;;;;0.50;0.50;;;;;;;;;;5041834;28;20132;-71
2023/08/01 02:54:54;;;;;;;0.50;0.50;;;;;;;;;;5036915;28;20060;-71
2023/08/01 02:57:20;;;;;;;0.40;0.40;;;;;;;;;;5025255;28;20037;-71
2023/08/01 02:59:46;;;;;;;0.50;0.50;;;;;;;;;;5033788;28;20055;-71
2023/08/01 03:02:13;;;;;;;0.88;0.88;;;;;;;;;;5066654;28;20776;-71
2023/08/01 03:04:39;;;;;;;0.55;0.55;;;;;;;;;;5059667;28;20036;-71
2023/08/01 03:07:05;;;;;;;0.57;0.57;;;;;;;;;;5044926;28;20044;-71
2023/08/01 03:09:32;;;;;;;0.32;0.32;;;;;;;;;;5050743;28;20048;-71
2023/08/01 03:11:58;;;;;;;0.35;0.35;;;;;;;;;;5053161;28;20048;-71
2023/08/01 03:14:24;;;;;;;0.77;0.77;;;;;;;;;;5056141;28;20727;-71
2023/08/01 03:16:50;;;;;;;0.40;0.40;;;;;;;;;;5049811;28;20078;-71
2023/08/01 03:19:16;;;;;;;0.40;0.40;;;;;;;;;;5058610;28;20076;-70
2023/08/01 03:21:43;;;;;;;0.40;0.40;;;;;;;;;;5057436;28;20041;-70
2023/08/01 03:24:09;;;;;;;0.82;0.82;;;;;;;;;;5052954;28;20522;-70
2023/08/01 03:26:38;;;;;;;0.40;0.40;;;;;;;;;;5056248;28;20051;-70
2023/08/01 03:29:05;;;;;;;0.40;0.40;;;;;;;;;;5049975;28;20063;-70
2023/08/01 03:31:31;;;;;;;0.65;0.40;;;;;;;;;;5035410;28;20559;-70
2023/08/01 03:34:00;;;;;;;0.30;0.30;;;;;;;;;;5052912;28;20480;-70
2023/08/01 03:36:26;;;;;;;0.38;0.38;;;;;;;;;;5049362;28;20123;-71
2023/08/01 03:38:52;;;;;;;0.75;0.75;;;;;;;;;;5049992;28;20037;-71
2023/08/01 03:41:18;;;;;;;0.82;0.82;;;;;;;;;;5051913;28;20127;-70
2023/08/01 03:43:44;;;;;;;0.45;0.45;;;;;;;;;;5056676;28;20036;-70
2023/08/01 03:46:10;;;;;;;0.50;0.50;;;;;;;;;;5038559;28;20036;-70
2023/08/01 03:48:36;;;;;;;0.60;0.60;;;;;;;;;;5065358;28;20032;-70
2023/08/01 03:51:03;;;;;;;0.63;0.63;;;;;;;;;;5048926;28;20117;-70
2023/08/01 03:53:30;;;;;;;0.63;0.63;;;;;;;;;;5050659;28;20067;-70
2023/08/01 03:55:56;;;;;;;0.45;0.45;;;;;;;;;;5045236;28;20083;-70
2023/08/01 03:58:22;;;;;;;0.50;0.50;;;;;;;;;;5029976;28;20063;-70
2023/08/01 04:00:49;;;;;;;0.30;0.30;;;;;;;;;;5030012;28;20048;-70
2023/08/01 04:03:15;;;;;;;0.55;0.55;;;;;;;;;;5035954;28;20462;-71
2023/08/01 04:05:41;;;;;;;0.52;0.52;;;;;;;;;;5033617;28;20045;-70
2023/08/01 04:08:07;;;;;;;0.47;0.47;;;;;;;;;;5033557;28;20120;-70
2023/08/01 04:10:33;;;;;;;0.50;0.50;;;;;;;;;;5027757;28;20040;-70
2023/08/01 04:12:59;;;;;;;0.43;0.43;;;;;;;;;;5034495;28;20044;-71
2023/08/01 04:15:25;;;;;;;0.52;0.52;;;;;;;;;;5037792;28;20055;-72
2023/08/01 04:17:51;;;;;;;0.70;0.70;;;;;;;;;;5011471;28;20049;-69
2023/08/01 04:20:17;;;;;;;0.40;0.40;;;;;;;;;;5023439;28;20096;-70
2023/08/01 04:22:43;;;;;;;0.93;0.93;;;;;;;;;;5031818;28;20045;-69
2023/08/01 04:25:09;;;;;;;0.38;0.38;;;;;;;;;;5037182;28;20040;-69
2023/08/01 04:27:35;;;;;;;0.43;0.43;;;;;;;;;;5030355;28;20082;-73
2023/08/01 04:30:01;;;;;;;0.65;0.65;;;;;;;;;;5030707;28;20045;-69
2023/08/01 04:32:27;;;;;;;0.50;0.50;;;;;;;;;;5026014;28;20043;-69
2023/08/01 04:34:53;;;;;;;0.40;0.40;;;;;;;;;;5026004;28;20041;-70
2023/08/01 04:37:23;;;;;;;0.32;0.32;;;;;;;;;;5041829;28;20072;-70
2023/08/01 04:39:49;;;;;;;0.73;0.73;;;;;;;;;;5028133;28;20045;-69
2023/08/01 04:42:15;;;;;;;0.30;0.30;;;;;;;;;;5033816;28;20036;-70
2023/08/01 04:44:41;;;;;;;0.98;0.98;;;;;;;;;;5024226;28;20175;-72
2023/08/01 04:47:07;;;;;;;0.38;0.38;;;;;;;;;;5039766;28;20044;-70
2023/08/01 04:49:33;;;;;;;0.40;0.40;;;;;;;;;;5037931;28;20051;-70
2023/08/01 04:52:00;;;;;;;0.55;0.55;;;;;;;;;;5027442;28;20041;-70
2023/08/01 04:54:26;;;;;;;0.40;0.40;;;;;;;;;;5039502;28;20061;-73
2023/08/01 04:56:52;;;;;;;0.38;0.38;;;;;;;;;;5029331;28;20040;-70
2023/08/01 04:59:18;;;;;;;0.40;0.40;;;;;;;;;;5040188;28;20049;-70
2023/08/01 05:01:44;;;;;;;0.40;0.40;;;;;;;;;;5028039;28;20046;-69
2023/08/01 05:04:10;;;;;;;1.27;0.50;;;;;;;;;;5028383;28;20058;-71
2023/08/01 05:06:36;;;;;;;0.40;0.40;;;;;;;;;;5026786;28;20049;-69
2023/08/01 05:09:05;;;;;;;0.50;0.50;;;;;;;;;;5028493;28;20056;-70
2023/08/01 05:11:31;;;;;;;1.08;0.98;;;;;;;;;;5034866;28;20040;-71
2023/08/01 05:13:57;;;;;;;0.98;0.88;;;;;;;;;;5035518;28;20151;-69
2023/08/01 05:16:23;;;;;;;0.30;0.30;;;;;;;;;;5049429;28;20044;-69
2023/08/01 05:18:49;;;;;;;0.50;0.50;;;;;;;;;;5042490;28;20083;-69
2023/08/01 05:21:15;;;;;;;0.40;0.40;;;;;;;;;;5037660;28;20507;-69
2023/08/01 05:23:41;;;;;;;0.90;0.82;;;;;;;;;;5028925;28;20042;-69
2023/08/01 05:26:07;;;;;;;0.40;0.40;;;;;;;;;;5035099;28;20040;-69
2023/08/01 05:28:33;;;;;;;0.40;0.40;;;;;;;;;;5036430;28;20085;-69
2023/08/01 05:30:59;;;;;;;0.35;0.35;;;;;;;;;;5033566;28;20044;-69
2023/08/01 05:33:25;;;;;;;0.52;0.52;;;;;;;;;;5042690;28;20047;-68
2023/08/01 05:35:51;;;;;;;0.55;0.55;;;;;;;;;;5038460;28;20075;-69
2023/08/01 05:38:18;;;;;;;0.40;0.40;;;;;;;;;;5031196;28;20391;-69
2023/08/01 05:40:44;;;;;;;0.50;0.50;;;;;;;;;;5030670;28;20067;-69
2023/08/01 05:43:10;;;;;;;0.40;0.40;;;;;;;;;;5030290;28;20500;-68
2023/08/01 05:45:36;;;;;;;0.40;0.40;;;;;;;;;;5034151;28;20056;-70
2023/08/01 05:48:02;;;;;;;0.30;0.30;;;;;;;;;;5041207;28;20056;-70
2023/08/01 05:50:28;;;;;;;0.40;0.40;;;;;;;;;;5023265;28;20439;-69
2023/08/01 05:52:55;;;;;;;0.38;0.38;;;;;;;;;;5029218;28;20044;-70
2023/08/01 05:55:21;;;;;;;2.80;1.17;;;;;;;;;;5043080;28;20407;-70
2023/08/01 05:57:48;;;;;;;0.40;0.40;;;;;;;;;;5037771;28;20106;-69
2023/08/01 06:00:15;;;;;;;0.63;0.63;;;;;;;;;;5035908;28;20120;-70
2023/08/01 06:02:41;;;;;;;0.50;0.50;;;;;;;;;;5029436;28;20057;-70
2023/08/01 06:05:08;;;;;;;0.40;0.40;;;;;;;;;;5020778;28;20420;-70
2023/08/01 06:07:34;;;;;;;0.30;0.30;;;;;;;;;;5016053;28;20041;-69
2023/08/01 06:10:00;;;;;;;0.40;0.40;;;;;;;;;;5026422;28;20040;-69
2023/08/01 06:12:26;;;;;;;0.60;0.60;;;;;;;;;;5029525;28;20087;-69
2023/08/01 06:14:52;;;;;;;0.40;0.40;;;;;;;;;;5024815;28;20041;-70
2023/08/01 06:17:19;;;;;;;0.40;0.40;;;;;;;;;;5016270;28;20284;-70
2023/08/01 06:19:45;;;;;;;0.70;0.70;;;;;;;;;;5030698;28;20044;-70
2023/08/01 06:22:11;;;;;;;0.40;0.40;;;;;;;;;;5026445;28;20053;-70
2023/08/01 06:24:37;;;;;;;0.90;0.90;;;;;;;;;;5026495;28;20032;-70
2023/08/01 06:27:04;;;;;;;0.60;0.60;;;;;;;;;;5022299;28;20047;-68
2023/08/01 06:29:30;;;;;;;0.52;0.52;;;;;;;;;;5015838;28;20044;-69
2023/08/01 06:31:56;;;;;;;0.55;0.47;;;;;;;;;;5024882;28;20560;-70
2023/08/01 06:34:22;;;;;;;0.52;0.52;;;;;;;;;;5019783;28;20332;-70
2023/08/01 06:36:49;;;;;;;0.40;0.40;;;;;;;;;;5037280;28;20041;-70
2023/08/01 06:39:15;;;;;;;0.30;0.30;;;;;;;;;;5033324;28;20036;-70
2023/08/01 06:41:41;;;;;;;0.63;0.63;;;;;;;;;;5027808;28;20457;-70
2023/08/01 06:44:07;;;;;;;0.55;0.55;;;;;;;;;;5016202;28;20087;-70
2023/08/01 06:46:33;;;;;;;0.90;0.90;;;;;;;;;;5037819;28;20458;-70
2023/08/01 06:48:59;;;;;;;0.57;0.57;;;;;;;;;;5029680;28;20742;-70
2023/08/01 06:51:25;;;;;;;0.50;0.50;;;;;;;;;;5029119;28;20166;-70
2023/08/01 06:53:51;;;;;;;1.20;0.75;;;;;;;;;;5033654;28;20037;-70
2023/08/01 06:56:18;;;;;;;0.60;0.60;;;;;;;;;;5017607;28;20052;-70
2023/08/01 06:58:44;;;;;;;0.40;0.40;;;;;;;;;;5027131;28;20500;-70
2023/08/01 07:01:10;;;;;;;0.50;0.50;;;;;;;;;;5046741;28;20052;-70
2023/08/01 07:03:36;;;;;;;0.50;0.50;;;;;;;;;;5042840;28;20487;-71
2023/08/01 07:06:02;;;;;;;0.55;0.55;;;;;;;;;;5047084;28;20043;-70
2023/08/01 07:08:28;;;;;;;0.50;0.50;;;;;;;;;;5061012;28;20033;-70
2023/08/01 07:10:54;;;;;;;0.85;0.85;;;;;;;;;;5046734;28;20037;-70
2023/08/01 07:13:22;;;;;;;0.50;0.50;;;;;;;;;;5048346;28;20123;-70
2023/08/01 07:15:48;;;;;;;0.50;0.50;;;;;;;;;;5059053;28;20540;-70
2023/08/01 07:18:14;;;;;;;0.73;0.73;;;;;;;;;;5057846;28;20047;-70
2023/08/01 07:20:40;;;;;;;0.50;0.50;;;;;;;;;;5061322;28;20055;-70
2023/08/01 07:23:06;;;;;;;0.32;0.32;;;;;;;;;;5048168;28;20048;-70
2023/08/01 07:25:32;;;;;;;0.45;0.40;;;;;;;;;;5056921;28;20115;-70
2023/08/01 07:27:58;;;;;;;0.40;0.40;;;;;;;;;;5025904;28;20384;-70
2023/08/01 07:30:24;;;;;;;0.30;0.30;;;;;;;;;;5052402;28;20060;-70
2023/08/01 07:32:51;;;;;;;0.65;0.65;;;;;;;;;;5030367;28;20150;-70
2023/08/01 07:35:17;;;;;;;0.50;0.50;;;;;;;;;;5046849;28;20047;-70
2023/08/01 07:37:43;;;;;;;0.60;0.60;;;;;;;;;;5048763;28;20048;-70
2023/08/01 07:40:09;;;;;;;0.40;0.40;;;;;;;;;;5041936;28;20123;-70
2023/08/01 07:42:36;;;;;;;1.30;1.15;;;;;;;;;;5039763;28;20083;-69
2023/08/01 07:45:02;;;;;;;0.57;0.57;;;;;;;;;;5042306;28;20036;-70
2023/08/01 07:47:28;;;;;;;0.40;0.40;;;;;;;;;;5030480;28;20059;-70
2023/08/01 07:49:54;;;;;;;0.90;0.70;;;;;;;;;;5043731;28;20055;-71
2023/08/01 07:52:20;;;;;;;0.68;0.68;;;;;;;;;;5048662;28;20048;-71
2023/08/01 07:54:46;;;;;;;0.50;0.50;;;;;;;;;;5038299;28;20055;-70
2023/08/01 07:57:12;;;;;;;0.40;0.40;;;;;;;;;;5057098;28;20044;-71
2023/08/01 07:59:38;;;;;;;5.25;0.63;;;;;;;;;;5033512;28;20036;-72
2023/08/01 08:02:04;;;;;;;0.50;0.50;;;;;;;;;;5044484;28;20082;-71
2023/08/01 08:04:30;;;;;;;0.30;0.30;;;;;;;;;;5038073;28;20033;-71
2023/08/01 08:06:59;;;;;;;0.50;0.50;;;;;;;;;;5052159;28;20501;-71
2023/08/01 08:09:26;;;;;;;0.40;0.40;;;;;;;;;;5028896;28;20064;-71
2023/08/01 08:11:52;;;;;;;0.40;0.40;;;;;;;;;;5050796;28;20045;-71
2023/08/01 08:14:21;;;;;;;0.70;0.70;;;;;;;;;;5056938;28;20040;-71
2023/08/01 08:16:47;;;;;;;0.50;0.50;;;;;;;;;;5048991;28;20481;-71
2023/08/01 08:19:13;;;;;;;1.02;1.02;;;;;;;;;;5064434;28;20038;-71
2023/08/01 08:21:39;;;;;;;4.07;1.00;;;;;;;;;;5052249;28;20072;-71
2023/08/01 08:24:05;;;;;;;1.30;0.80;;;;;;;;;;5034347;28;20059;-71
2023/08/01 08:26:33;;;;;;;0.57;0.57;;;;;;;;;;5036229;28;20175;-70
2023/08/01 08:29:00;;;;;;;0.50;0.50;;;;;;;;;;5059970;28;20070;-70
2023/08/01 08:31:26;;;;;;;0.70;0.70;;;;;;;;;;5045917;28;20119;-69
2023/08/01 08:33:52;;;;;;;1.52;1.42;;;;;;;;;;5054804;28;20051;-69
2023/08/01 08:36:18;;;;;;;0.80;0.80;;;;;;;;;;5050501;28;20051;-70
2023/08/01 08:38:44;;;;;;;0.50;0.50;;;;;;;;;;5047348;28;20134;-70
2023/08/01 08:41:30;;;;;;;0.30;0.30;;;;;;;;;;5047374;28;20037;-70
2023/08/01 08:44:00;;;;;;;2.33;1.75;;;;;;;;;;5046566;28;20503;-70
2023/08/01 08:46:28;;;;;;;0.73;0.73;;;;;;;;;;5039173;28;20377;-68
2023/08/01 08:48:54;;;;;;;;;;;;;;;;;;5047028;28;20081;-70
2023/08/01 08:51:20;;;;;;;0.32;0.32;;;;;;;;;;5050635;28;19966;-69
2023/08/01 08:53:47;;;;;;;0.40;0.40;;;;;;;;;;5040285;28;20045;-70
2023/08/01 08:56:14;;;;;;;0.43;0.43;;;;;;;;;;5044868;28;20048;-70
2023/08/01 08:58:40;;;;;;;0.30;0.30;;;;;;;;;;5040134;28;20061;-70
2023/08/01 09:01:08;;;;;;;0.50;0.50;;;;;;;;;;5058590;28;20055;-70
2023/08/01 09:03:34;;;;;;;0.30;0.30;;;;;;;;;;5040121;28;20040;-70
2023/08/01 09:06:07;;;;;;;0.57;0.57;;;;;;;;;;5032513;28;20071;-70
2023/08/01 09:08:36;;;;;;;0.40;0.40;;;;;;;;;;5040733;28;20044;-69
2023/08/01 09:11:03;;;;;;;0.40;0.40;;;;;;;;;;5048417;28;20424;-70
2023/08/01 09:13:29;;;;;;;0.50;0.50;;;;;;;;;;5050188;28;20045;-70
2023/08/01 09:15:55;;;;;;;0.52;0.52;;;;;;;;;;5061312;28;20044;-70
2023/08/01 09:18:21;;;;;;;0.57;0.57;;;;;;;;;;5033566;28;20036;-70
2023/08/01 09:20:48;;;;;;;0.60;0.60;;;;;;;;;;5037323;28;20048;-70
2023/08/01 09:23:15;;;;;;;0.40;0.40;;;;;;;;;;5058087;28;20076;-70
2023/08/01 09:25:41;;;;;;;0.73;0.73;;;;;;;;;;5053884;28;20037;-70
2023/08/01 09:28:17;;;;;;;0.60;0.60;;;;;;;;;;5051436;28;20090;-70
2023/08/01 09:30:47;;;;;;;0.30;0.30;;;;;;;;;;5047985;28;20040;-70
2023/08/01 09:33:13;;;;;;;0.50;0.50;;;;;;;;;;5057371;28;20042;-70
2023/08/01 09:35:39;;;;;;;0.30;0.30;;;;;;;;;;5057491;28;20131;-70
2023/08/01 09:38:06;;;;;;;0.50;0.50;;;;;;;;;;5032689;28;20496;-70
2023/08/01 09:40:38;;;;;;;0.50;0.50;;;;;;;;;;5043150;28;20033;-70
2023/08/01 09:43:05;;;;;;;0.50;0.50;;;;;;;;;;5022654;28;20037;-70
2023/08/01 09:45:31;;;;;;;0.30;0.30;;;;;;;;;;5054152;28;20568;-70
2023/08/01 09:47:57;;;;;;;0.50;0.50;;;;;;;;;;5052788;28;20063;-70
2023/08/01 09:50:24;;;;;;;0.40;0.40;;;;;;;;;;5035942;28;20125;-70
2023/08/01 09:52:52;;;;;;;0.40;0.40;;;;;;;;;;5053659;28;20044;-70
2023/08/01 09:55:39;;;;;;;0.47;0.47;;;;;;;;;;5061658;28;20143;-70
2023/08/01 09:58:05;;;;;;;0.40;0.40;;;;;;;;;;5024930;28;20525;-70
2023/08/01 10:00:32;;;;;;;0.40;0.40;;;;;;;;;;5015193;28;20120;-70
2023/08/01 10:03:01;;;;;;;0.40;0.40;;;;;;;;;;5028077;28;20511;-70
2023/08/01 10:05:31;;;;;;;0.40;0.40;;;;;;;;;;5030170;28;20143;-70
2023/08/01 10:08:01;;;;;;;1.48;0.77;;;;;;;;;;5012419;28;20396;-69
2023/08/01 10:10:28;;;;;;;0.43;0.43;;;;;;;;;;5030426;28;20083;-70
2023/08/01 10:12:55;;;;;;;1.02;0.95;;;;;;;;;;5032179;28;20055;-71
2023/08/01 10:15:21;;;;;;;0.70;0.70;;;;;;;;;;5042171;28;20063;-71
2023/08/01 10:17:47;;;;;;;0.77;0.55;;;;;;;;;;5035031;28;20048;-71
2023/08/01 10:20:14;;;;;;;0.40;0.40;;;;;;;;;;5031586;28;20040;-70
2023/08/01 10:22:41;;;;;;;0.40;0.40;;;;;;;;;;5029021;28;20496;-73
2023/08/01 10:25:10;;;;;;;0.85;0.85;;;;;;;;;;5035741;28;20051;-69
2023/08/01 10:27:36;;;;;;;0.57;0.57;;;;;;;;;;5033671;28;20049;-74
2023/08/01 10:30:03;;;;;;;1.63;0.65;;;;;;;;;;5016461;28;20037;-70
2023/08/01 10:32:37;;;;;;;0.40;0.40;;;;;;;;;;5036410;28;20040;-71
2023/08/01 10:35:04;;;;;;;0.40;0.40;;;;;;;;;;5027619;28;20558;-71
2023/08/01 10:37:45;;;;;;;0.50;0.50;;;;;;;;;;5010322;28;20048;-71
2023/08/01 10:40:11;;;;;;;0.40;0.40;;;;;;;;;;5014028;28;20040;-73
2023/08/01 10:42:41;;;;;;;0.50;0.50;;;;;;;;;;5035982;28;20037;-73
2023/08/01 10:45:08;;;;;;;0.30;0.30;;;;;;;;;;5024213;28;20032;-72
2023/08/01 10:47:34;;;;;;;0.68;0.68;;;;;;;;;;5036157;28;20571;-73
2023/08/01 10:50:22;;;;;;;0.63;0.63;;;;;;;;;;5018593;28;20353;-72
2023/08/01 10:52:48;;;;;;;0.63;0.63;;;;;;;;;;5038184;28;20044;-73
2023/08/01 10:55:14;;;;;;;5.95;0.98;;;;;;;;;;5022770;28;20040;-73
2023/08/01 10:57:49;;;;;;;0.43;0.43;;;;;;;;;;5023859;28;20064;-75
2023/08/01 11:00:17;;;;;;;0.50;0.50;;;;;;;;;;5034247;28;20313;-73
2023/08/01 11:02:49;;;;;;;0.70;0.70;;;;;;;;;;5019589;28;20489;-74
2023/08/01 11:05:15;;;;;;;0.40;0.40;;;;;;;;;;5035030;28;20035;-73
2023/08/01 11:07:41;;;;;;;3.30;0.95;;;;;;;;;;5031276;28;20076;-76
2023/08/01 11:10:11;;;;;;;0.50;0.50;;;;;;;;;;5027343;28;20033;-74
2023/08/01 11:12:38;;;;;;;0.40;0.40;;;;;;;;;;5013637;28;20045;-73
2023/08/01 11:15:07;;;;;;;0.50;0.50;;;;;;;;;;5031763;28;20041;-73
2023/08/01 11:17:34;;;;;;;0.30;0.30;;;;;;;;;;5013300;28;20390;-74
2023/08/01 11:20:04;;;;;;;0.40;0.40;;;;;;;;;;5037398;28;20090;-75
2023/08/01 11:22:31;;;;;;;1.02;1.02;;;;;;;;;;5009306;28;20094;-74
2023/08/01 11:24:57;;;;;;;0.57;0.57;;;;;;;;;;5043818;28;20040;-75
2023/08/01 11:27:23;;;;;;;0.57;0.57;;;;;;;;;;5032198;28;20044;-74
2023/08/01 11:29:49;;;;;;;0.47;0.47;;;;;;;;;;5030922;28;20453;-73
2023/08/01 11:32:15;;;;;;;0.40;0.40;;;;;;;;;;5025250;28;20037;-73
2023/08/01 11:34:44;;;;;;;0.60;0.60;;;;;;;;;;5028240;28;20049;-73
2023/08/01 11:37:11;;;;;;;0.60;0.60;;;;;;;;;;5021092;28;20408;-73
2023/08/01 11:39:37;;;;;;;0.60;0.60;;;;;;;;;;5022241;28;20506;-75
2023/08/01 11:42:03;;;;;;;0.80;0.80;;;;;;;;;;5015179;28;20034;-73
2023/08/01 11:44:29;;;;;;;0.50;0.50;;;;;;;;;;5025687;28;20029;-73
2023/08/01 11:46:56;;;;;;;0.30;0.30;;;;;;;;;;5021999;28;20116;-72
2023/08/01 11:49:22;;;;;;;0.80;0.80;;;;;;;;;;5011828;28;20119;-72
2023/08/01 11:51:49;;;;;;;0.43;0.43;;;;;;;;;;5019216;28;20095;-73
2023/08/01 11:54:17;;;;;;;0.75;0.75;;;;;;;;;;5031290;28;20046;-72
2023/08/01 11:56:43;;;;;;;;;;;;;;;;;;5002755;28;20107;-71
2023/08/01 11:59:10;;;;;;;0.60;0.60;;;;;;;;;;5031480;28;19928;-71
2023/08/01 12:01:43;;;;;;;0.50;0.50;;;;;;;;;;5048764;28;20185;-70
2023/08/01 12:04:10;;;;;;;0.65;0.65;;;;;;;;;;5063783;28;20035;-70
2023/08/01 12:06:38;;;;;;;0.50;0.50;;;;;;;;;;5040915;28;20048;-70
2023/08/01 12:09:22;;;;;;;;;;;;;;;;;;5046407;28;20052;-71
2023/08/01 12:11:58;;;;;;;2.25;1.25;;;;;;;;;;5054505;28;19990;-71
2023/08/01 12:14:24;;;;;;;0.65;0.65;;;;;;;;;;5051258;28;20032;-70
2023/08/01 12:16:50;;;;;;;0.63;0.63;;;;;;;;;;5046955;28;20075;-71
2023/08/01 12:19:22;;;;;;;0.38;0.38;;;;;;;;;;5050708;28;20407;-70
2023/08/01 12:21:48;;;;;;;1.23;1.23;;;;;;;;;;5039944;28;20101;-74
2023/08/01 12:24:15;;;;;;;0.45;0.45;;;;;;;;;;5039424;28;20127;-71
2023/08/01 12:26:41;;;;;;;0.57;0.57;;;;;;;;;;5048158;28;20075;-71
2023/08/01 12:29:08;;;;;;;1.23;0.50;;;;;;;;;;5051213;28;20040;-73
2023/08/01 12:31:34;;;;;;;1.03;1.03;;;;;;;;;;5058141;28;20044;-71
2023/08/01 12:34:00;;;;;;;0.45;0.45;;;;;;;;;;5048392;28;23953;-70
2023/08/01 12:36:29;;;;;;;0.63;0.63;;;;;;;;;;5028808;28;20045;-70
2023/08/01 12:38:55;;;;;;;0.45;0.45;;;;;;;;;;5046519;28;20447;-70
2023/08/01 12:41:21;;;;;;;0.70;0.70;;;;;;;;;;5058124;28;20040;-70
2023/08/01 12:43:47;;;;;;;0.57;0.57;;;;;;;;;;5056900;28;20131;-71
2023/08/01 12:46:13;;;;;;;1.10;0.70;;;;;;;;;;5043702;28;20038;-71
2023/08/01 12:48:39;;;;;;;0.30;0.30;;;;;;;;;;5060163;28;20468;-71
2023/08/01 12:51:05;;;;;;;0.77;0.52;;;;;;;;;;5051544;28;20041;-71
2023/08/01 12:53:31;;;;;;;0.50;0.50;;;;;;;;;;5054928;28;20093;-73
2023/08/01 12:55:57;;;;;;;0.40;0.40;;;;;;;;;;5041120;28;20048;-72
2023/08/01 12:58:23;;;;;;;1.08;0.63;;;;;;;;;;5049463;28;20044;-73
2023/08/01 13:00:49;;;;;;;0.40;0.40;;;;;;;;;;5042140;28;20048;-71
2023/08/01 13:03:16;;;;;;;0.60;0.60;;;;;;;;;;5041385;28;20048;-71
2023/08/01 13:05:42;;;;;;;0.40;0.40;;;;;;;;;;5051654;28;20080;-71
2023/08/01 13:08:08;;;;;;;0.60;0.60;;;;;;;;;;5041231;28;20033;-70
2023/08/01 13:10:35;;;;;;;0.75;0.75;;;;;;;;;;5040524;28;20036;-75
2023/08/01 13:13:01;;;;;;;0.65;0.65;;;;;;;;;;5045409;28;20033;-71
2023/08/01 13:15:27;;;;;;;0.40;0.40;;;;;;;;;;5060243;28;20412;-74
2023/08/01 13:17:54;;;;;;;0.68;0.68;;;;;;;;;;5064157;28;20033;-70
2023/08/01 13:20:20;;;;;;;1.00;1.00;;;;;;;;;;5046536;28;20412;-71
2023/08/01 13:22:47;;;;;;;2.40;1.40;;;;;;;;;;5041241;28;20486;-72
2023/08/01 13:25:16;;;;;;;0.47;0.47;;;;;;;;;;5053503;28;20040;-72
2023/08/01 13:27:42;;;;;;;0.40;0.40;;;;;;;;;;5052991;28;20663;-74
2023/08/01 13:30:09;;;;;;;0.50;0.50;;;;;;;;;;5055404;28;20230;-71
2023/08/01 13:32:35;;;;;;;0.47;0.47;;;;;;;;;;5053720;28;20072;-74
2023/08/01 13:35:01;;;;;;;0.70;0.70;;;;;;;;;;5069108;28;20128;-72
2023/08/01 13:37:29;;;;;;;0.50;0.50;;;;;;;;;;5042040;28;20059;-74
2023/08/01 13:39:55;;;;;;;;;;;;;;;;;;5051535;28;20052;-74
2023/08/01 13:42:21;;;;;;;0.50;0.50;;;20.30;99.90;;;;;;5053135;28;19916;-72
2023/08/01 13:44:47;;;;;;;0.98;0.90;;;;;;;;;;5064596;28;20127;-72
2023/08/01 13:47:13;;;;;;;1.20;1.20;;;;;;;;;;5065055;28;20036;-72
2023/08/01 13:49:39;;;;;;;1.42;1.33;;;;;;;;;;5054680;28;20043;-71
2023/08/01 13:52:06;;;;;;;0.75;0.75;;;;;;;;;;5053866;28;20043;-71
2023/08/01 13:54:32;;;;;;;0.40;0.40;;;;;;;;;;5049761;28;20036;-73
2023/08/01 13:56:58;;;;;;;0.50;0.45;;;;;;;;;;5056154;28;20028;-72
2023/08/01 13:59:24;;;;;;;0.82;0.82;;;;;;;;;;5035048;28;20052;-72
2023/08/01 14:01:50;;;;;;;1.67;1.58;;;;;;;;;;5064735;28;20047;-72
2023/08/01 14:04:16;;;;;;;0.75;0.75;;;;;;;;;;5044472;28;20036;-73
2023/08/01 14:06:42;;;;;;;0.77;0.77;;;;;;;;;;5035363;28;20590;-75
2023/08/01 14:09:09;;;;;;;0.93;0.65;;;;;;;;;;5059270;28;20028;-72
2023/08/01 14:11:35;;;;;;;1.73;1.63;;;;;;;;;;5054180;28;20123;-71
2023/08/01 14:14:01;;;;;;;0.60;0.60;;;;;;;;;;5063502;28;20051;-72
2023/08/01 14:16:28;;;;;;;0.77;0.77;;;20.30;99.90;;;;;;5047023;28;20047;-72
2023/08/01 14:18:54;;;;;;;0.55;0.55;;;;;;;;;;5061142;28;20044;-71
2023/08/01 14:21:20;;;;;;;1.02;1.00;;;;;;;;;;5047662;28;20036;-71
2023/08/01 14:23:47;;;;;;;1.00;0.80;;;;;;;;;;5041304;28;20103;-72
2023/08/01 14:26:13;;;;;;;0.30;0.30;;;;;;;;;;5051793;28;20041;-71
2023/08/01 14:28:39;;;;;;;0.40;0.40;;;;;;;;;;5048543;28;20110;-71
2023/08/01 14:31:07;;;;;;;1.35;0.70;;;;;;;;;;5052477;28;20074;-71
2023/08/01 14:33:33;;;;;;;0.43;0.43;;;19.80;99.90;;;;;;5061554;28;20047;-71
2023/08/01 14:35:59;;;;;;;0.60;0.60;;;;;;;;;;5043146;28;20064;-71
2023/08/01 14:38:25;;;;;;;1.30;0.50;;;19.50;99.90;;;;;;5048841;28;20044;-71
2023/08/01 14:40:52;;;;;;;0.32;0.32;;;;;;;;;;5044616;28;20036;-70